• Join FlightAware (Why Join?)
  • Login
  • US Flag 
05:03AM EDT


 

Airport Tracker/Info


-or-


 

Live Flight TrackerFlight Track Log ✈ SWA4195 ✈ 29-Aug-2013 ✈ KTUL - KDAL

Flight Track Log - Related Links

Times and Time Zones

All times are in EDT time to prevent confusion due to time zone crossing. See the SWA4195 flight status page for this flight to view local times or setup timezone preferences in your user account.

Time Position Orientation Groundspeed Altitude Reporting Facility
EDT Latitude Longitude Course Direction KTS MPH feet Rate Location/Type
08:18PM 36.1008 -95.8628 168° South 236 272 4,300  Level Kansas City Center
08:19PM 36.0289 -95.8308 160° South 287 330 6,800 2,460 Climbing Kansas City Center
08:21PM 35.9153 -95.7761 159° South 286 329 10,500 2,220 Climbing Kansas City Center
08:22PM 35.8194 -95.7575 171° South 342 394 12,400 1,980 Climbing Kansas City Center
08:23PM 35.7189 -95.7597 181° South 358 412 14,700 2,220 Climbing Kansas City Center
08:24PM 35.6158 -95.7631 182° South 365 420 17,100 2,100 Climbing Kansas City Center
08:25PM 35.5103 -95.7653 181° South 374 430 19,100 1,740 Climbing Kansas City Center
08:26PM 35.4006 -95.7678 181° South 386 444 20,700 1,140 Climbing Kansas City Center
08:27PM 35.2350 -95.7717 181° South 406 467 22,000 540 Climbing Fort Worth Center
08:28PM 35.1161 -95.7764 182° South 423 487 22,000  Level Fort Worth Center
08:29PM 34.9994 -95.7761 180° South 423 487 22,000  Level Fort Worth Center
08:30PM 34.8847 -95.7833 183° South 418 481 22,000  Level Fort Worth Center
08:31PM 34.7703 -95.8083 190° South 423 487 22,000  Level Fort Worth Center
08:32PM 34.6603 -95.8483 197° South 423 487 22,000  Level Fort Worth Center
08:33PM 34.5522 -95.8881 197° South 418 481 22,000  Level Fort Worth Center
08:34PM 34.4400 -95.9253 195° South 418 481 22,000  Level Fort Worth Center
08:35PM 34.3278 -95.9650 196° South 418 481 22,000  Level Fort Worth Center
08:36PM 34.2053 -96.0072 196° South 418 481 22,000  Level Fort Worth Center
08:37PM 34.0867 -96.0492 196° South 433 498 22,000  Level Fort Worth Center
08:38PM 33.9847 -96.0833 196° South 427 491 22,000 -240 Level Fort Worth Center
08:39PM 33.8661 -96.1203 195° South 434 499 21,600 -1,740 Descending Fort Worth Center
08:40PM 33.7456 -96.1644 197° South 447 514 18,600 -3,000 Descending Fort Worth Center
08:41PM 33.6228 -96.2061 196° South 429 494 15,600 -2,760 Descending Fort Worth Center
08:42PM 33.5250 -96.2397 196° South 416 479 13,100 -2,520 Descending Fort Worth Center
08:43PM 33.4106 -96.2811 197° South 406 467 10,700 -1,500 Descending Fort Worth Center
08:44PM 33.3275 -96.3119 197° South 374 430 10,100 -900 Descending Fort Worth Center
08:45PM 33.2444 -96.3503 201° Southwest 321 369 9,000 -1,440 Descending Fort Worth Center
08:46PM 33.1992 -96.4303 236° Southwest 276 318 7,300 -1,560 Descending Fort Worth Center
08:47PM 33.1536 -96.5078 235° Southwest 292 336 5,900 -1,380 Descending Fort Worth Center
08:48PM 33.1103 -96.5825 235° Southwest 292 336 4,600 -960 Descending Fort Worth Center
08:49PM 33.0669 -96.6575 235° Southwest 282 325 4,000 -840 Descending Fort Worth Center
08:50PM 33.0297 -96.7222 236° Southwest 276 318 3,000 -540 Descending Fort Worth Center
08:51PM 32.9883 -96.7917 235° Southwest 254 292 3,000  Level Fort Worth Center
08:53PM 32.9333 -96.8667 229° Southwest 233 268 3,000 -480 Level Dallas / Fort Worth TRACON
08:54PM 32.9000 -96.9167 232° Southwest 164 189 1,900 -1,020 Descending Dallas / Fort Worth TRACON
08:55PM 32.8667 -96.8833 140° Southeast 139 160 1,000 -1,020 Descending Dallas / Fort Worth TRACON